sensor_id;sensor_type;location;lat;lon;timestamp;P1;durP1;ratioP1;P2;durP2;ratioP2
4053;SDS011;2042;47.956;9.222;2022-09-03T00:00:16;10.80;;;7.90;;
4053;SDS011;2042;47.956;9.222;2022-09-03T00:02:44;8.40;;;7.60;;
4053;SDS011;2042;47.956;9.222;2022-09-03T00:05:16;7.50;;;6.70;;
4053;SDS011;2042;47.956;9.222;2022-09-03T00:13:15;9.03;;;8.20;;
4053;SDS011;2042;47.956;9.222;2022-09-03T00:15:45;7.57;;;6.87;;
4053;SDS011;2042;47.956;9.222;2022-09-03T00:18:15;7.73;;;7.03;;
4053;SDS011;2042;47.956;9.222;2022-09-03T00:20:49;8.17;;;7.47;;
4053;SDS011;2042;47.956;9.222;2022-09-03T00:23:22;8.20;;;7.40;;
4053;SDS011;2042;47.956;9.222;2022-09-03T00:25:53;9.10;;;8.20;;
4053;SDS011;2042;47.956;9.222;2022-09-03T00:28:26;12.03;;;7.23;;
4053;SDS011;2042;47.956;9.222;2022-09-03T00:33:39;7.90;;;7.10;;
4053;SDS011;2042;47.956;9.222;2022-09-03T00:38:45;10.47;;;8.60;;
4053;SDS011;2042;47.956;9.222;2022-09-03T00:42:16;9.40;;;8.50;;
4053;SDS011;2042;47.956;9.222;2022-09-03T00:55:19;9.07;;;8.27;;
4053;SDS011;2042;47.956;9.222;2022-09-03T00:58:06;8.13;;;7.37;;
4053;SDS011;2042;47.956;9.222;2022-09-03T01:00:54;8.00;;;7.20;;
4053;SDS011;2042;47.956;9.222;2022-09-03T01:03:39;8.17;;;7.47;;
4053;SDS011;2042;47.956;9.222;2022-09-03T01:06:18;9.23;;;7.50;;
4053;SDS011;2042;47.956;9.222;2022-09-03T01:08:59;10.50;;;8.10;;
4053;SDS011;2042;47.956;9.222;2022-09-03T01:11:43;9.20;;;8.40;;
4053;SDS011;2042;47.956;9.222;2022-09-03T01:17:03;12.40;;;9.40;;
4053;SDS011;2042;47.956;9.222;2022-09-03T01:30:47;12.57;;;10.33;;
4053;SDS011;2042;47.956;9.222;2022-09-03T01:33:39;13.80;;;9.87;;
4053;SDS011;2042;47.956;9.222;2022-09-03T01:39:14;14.43;;;11.77;;
4053;SDS011;2042;47.956;9.222;2022-09-03T01:41:58;13.80;;;10.30;;
4053;SDS011;2042;47.956;9.222;2022-09-03T01:52:54;11.67;;;9.40;;
4053;SDS011;2042;47.956;9.222;2022-09-03T01:58:07;12.80;;;8.93;;
4053;SDS011;2042;47.956;9.222;2022-09-03T02:00:36;9.30;;;8.40;;
4053;SDS011;2042;47.956;9.222;2022-09-03T02:03:05;9.43;;;8.50;;
4053;SDS011;2042;47.956;9.222;2022-09-03T02:05:31;11.00;;;8.73;;
4053;SDS011;2042;47.956;9.222;2022-09-03T02:08:03;10.73;;;9.73;;
4053;SDS011;2042;47.956;9.222;2022-09-03T02:10:31;10.20;;;9.30;;
4053;SDS011;2042;47.956;9.222;2022-09-03T02:13:06;9.70;;;8.70;;
4053;SDS011;2042;47.956;9.222;2022-09-03T02:15:35;8.73;;;7.83;;
4053;SDS011;2042;47.956;9.222;2022-09-03T02:18:05;10.10;;;9.10;;
4053;SDS011;2042;47.956;9.222;2022-09-03T02:20:37;10.67;;;9.00;;
4053;SDS011;2042;47.956;9.222;2022-09-03T02:23:04;10.40;;;8.30;;
4053;SDS011;2042;47.956;9.222;2022-09-03T02:25:35;9.10;;;8.30;;
4053;SDS011;2042;47.956;9.222;2022-09-03T02:28:05;12.33;;;9.50;;
4053;SDS011;2042;47.956;9.222;2022-09-03T02:30:33;16.73;;;9.83;;
4053;SDS011;2042;47.956;9.222;2022-09-03T02:32:59;9.03;;;8.10;;
4053;SDS011;2042;47.956;9.222;2022-09-03T02:35:25;10.30;;;8.87;;
4053;SDS011;2042;47.956;9.222;2022-09-03T02:37:51;10.33;;;9.07;;
4053;SDS011;2042;47.956;9.222;2022-09-03T02:40:17;11.43;;;8.50;;
4053;SDS011;2042;47.956;9.222;2022-09-03T02:42:46;9.60;;;8.80;;
4053;SDS011;2042;47.956;9.222;2022-09-03T02:45:19;10.70;;;9.60;;
4053;SDS011;2042;47.956;9.222;2022-09-03T02:47:52;9.77;;;8.87;;
4053;SDS011;2042;47.956;9.222;2022-09-03T02:50:21;12.40;;;10.03;;
4053;SDS011;2042;47.956;9.222;2022-09-03T02:52:47;10.60;;;9.67;;
4053;SDS011;2042;47.956;9.222;2022-09-03T02:55:13;11.33;;;10.33;;
4053;SDS011;2042;47.956;9.222;2022-09-03T02:57:40;11.50;;;10.50;;
4053;SDS011;2042;47.956;9.222;2022-09-03T03:00:06;10.30;;;9.37;;
4053;SDS011;2042;47.956;9.222;2022-09-03T03:02:32;12.23;;;10.47;;
4053;SDS011;2042;47.956;9.222;2022-09-03T03:04:58;10.67;;;9.67;;
4053;SDS011;2042;47.956;9.222;2022-09-03T03:07:24;11.07;;;9.90;;
4053;SDS011;2042;47.956;9.222;2022-09-03T03:09:50;10.93;;;9.90;;
4053;SDS011;2042;47.956;9.222;2022-09-03T03:12:16;14.00;;;10.20;;
4053;SDS011;2042;47.956;9.222;2022-09-03T03:14:43;12.40;;;11.10;;
4053;SDS011;2042;47.956;9.222;2022-09-03T03:17:08;12.20;;;10.87;;
4053;SDS011;2042;47.956;9.222;2022-09-03T03:19:34;13.07;;;11.77;;
4053;SDS011;2042;47.956;9.222;2022-09-03T03:22:02;12.30;;;10.97;;
4053;SDS011;2042;47.956;9.222;2022-09-03T03:24:28;10.77;;;9.67;;
4053;SDS011;2042;47.956;9.222;2022-09-03T03:26:57;11.87;;;10.67;;
4053;SDS011;2042;47.956;9.222;2022-09-03T03:29:24;13.83;;;9.50;;
4053;SDS011;2042;47.956;9.222;2022-09-03T03:31:50;11.20;;;9.77;;
4053;SDS011;2042;47.956;9.222;2022-09-03T03:34:17;12.97;;;10.60;;
4053;SDS011;2042;47.956;9.222;2022-09-03T03:36:43;10.60;;;9.60;;
4053;SDS011;2042;47.956;9.222;2022-09-03T03:39:09;10.20;;;9.20;;
4053;SDS011;2042;47.956;9.222;2022-09-03T03:41:35;11.00;;;9.90;;
4053;SDS011;2042;47.956;9.222;2022-09-03T03:44:03;10.73;;;9.73;;
4053;SDS011;2042;47.956;9.222;2022-09-03T03:46:30;12.03;;;10.40;;
4053;SDS011;2042;47.956;9.222;2022-09-03T03:48:57;11.23;;;10.03;;
4053;SDS011;2042;47.956;9.222;2022-09-03T03:51:23;11.47;;;10.20;;
4053;SDS011;2042;47.956;9.222;2022-09-03T03:53:52;11.73;;;10.50;;
4053;SDS011;2042;47.956;9.222;2022-09-03T03:56:18;10.93;;;9.93;;
4053;SDS011;2042;47.956;9.222;2022-09-03T03:58:44;11.10;;;10.00;;
4053;SDS011;2042;47.956;9.222;2022-09-03T04:01:16;16.60;;;9.70;;
4053;SDS011;2042;47.956;9.222;2022-09-03T04:03:42;10.70;;;9.73;;
4053;SDS011;2042;47.956;9.222;2022-09-03T04:06:10;10.13;;;9.23;;
4053;SDS011;2042;47.956;9.222;2022-09-03T04:08:37;10.00;;;9.00;;
4053;SDS011;2042;47.956;9.222;2022-09-03T04:11:04;10.90;;;9.50;;
4053;SDS011;2042;47.956;9.222;2022-09-03T04:13:31;9.37;;;8.47;;
4053;SDS011;2042;47.956;9.222;2022-09-03T04:16:04;10.43;;;9.33;;
4053;SDS011;2042;47.956;9.222;2022-09-03T04:18:31;13.63;;;10.07;;
4053;SDS011;2042;47.956;9.222;2022-09-03T04:21:00;10.33;;;9.03;;
4053;SDS011;2042;47.956;9.222;2022-09-03T04:23:28;9.20;;;8.20;;
4053;SDS011;2042;47.956;9.222;2022-09-03T04:25:54;10.10;;;9.10;;
4053;SDS011;2042;47.956;9.222;2022-09-03T04:28:20;13.70;;;9.10;;
4053;SDS011;2042;47.956;9.222;2022-09-03T04:30:46;11.47;;;10.37;;
4053;SDS011;2042;47.956;9.222;2022-09-03T04:33:12;12.00;;;8.43;;
4053;SDS011;2042;47.956;9.222;2022-09-03T04:35:38;9.60;;;8.77;;
4053;SDS011;2042;47.956;9.222;2022-09-03T04:38:06;10.27;;;9.37;;
4053;SDS011;2042;47.956;9.222;2022-09-03T04:40:32;9.87;;;8.87;;
4053;SDS011;2042;47.956;9.222;2022-09-03T04:42:58;10.97;;;9.90;;
4053;SDS011;2042;47.956;9.222;2022-09-03T04:45:25;11.60;;;9.20;;
4053;SDS011;2042;47.956;9.222;2022-09-03T04:47:56;10.17;;;9.20;;
4053;SDS011;2042;47.956;9.222;2022-09-03T04:50:22;11.40;;;10.30;;
4053;SDS011;2042;47.956;9.222;2022-09-03T04:52:49;11.00;;;9.87;;
4053;SDS011;2042;47.956;9.222;2022-09-03T04:55:15;9.77;;;8.87;;
4053;SDS011;2042;47.956;9.222;2022-09-03T04:57:41;11.93;;;10.80;;
4053;SDS011;2042;47.956;9.222;2022-09-03T05:00:08;13.30;;;11.30;;
4053;SDS011;2042;47.956;9.222;2022-09-03T05:02:36;12.47;;;10.90;;
4053;SDS011;2042;47.956;9.222;2022-09-03T05:05:02;14.57;;;13.00;;
4053;SDS011;2042;47.956;9.222;2022-09-03T05:07:29;19.40;;;12.60;;
4053;SDS011;2042;47.956;9.222;2022-09-03T05:10:04;21.07;;;12.83;;
4053;SDS011;2042;47.956;9.222;2022-09-03T05:12:30;19.73;;;12.90;;
4053;SDS011;2042;47.956;9.222;2022-09-03T05:14:58;17.83;;;12.87;;
4053;SDS011;2042;47.956;9.222;2022-09-03T05:17:25;15.37;;;13.40;;
4053;SDS011;2042;47.956;9.222;2022-09-03T05:19:51;16.33;;;11.80;;
4053;SDS011;2042;47.956;9.222;2022-09-03T05:22:18;14.50;;;11.30;;
4053;SDS011;2042;47.956;9.222;2022-09-03T05:24:47;13.97;;;11.17;;
4053;SDS011;2042;47.956;9.222;2022-09-03T05:27:14;15.37;;;11.43;;
4053;SDS011;2042;47.956;9.222;2022-09-03T05:29:43;12.23;;;10.53;;
4053;SDS011;2042;47.956;9.222;2022-09-03T05:32:09;11.70;;;10.00;;
4053;SDS011;2042;47.956;9.222;2022-09-03T05:34:36;14.10;;;10.70;;
4053;SDS011;2042;47.956;9.222;2022-09-03T05:37:02;10.70;;;9.53;;
4053;SDS011;2042;47.956;9.222;2022-09-03T05:39:28;12.10;;;10.07;;
4053;SDS011;2042;47.956;9.222;2022-09-03T05:41:54;12.03;;;10.20;;
4053;SDS011;2042;47.956;9.222;2022-09-03T05:44:20;13.27;;;10.40;;
4053;SDS011;2042;47.956;9.222;2022-09-03T05:46:48;11.00;;;9.40;;
4053;SDS011;2042;47.956;9.222;2022-09-03T05:49:15;17.37;;;10.60;;
4053;SDS011;2042;47.956;9.222;2022-09-03T05:51:42;12.03;;;9.40;;
4053;SDS011;2042;47.956;9.222;2022-09-03T05:54:09;11.60;;;8.17;;
4053;SDS011;2042;47.956;9.222;2022-09-03T05:56:35;11.37;;;8.63;;
4053;SDS011;2042;47.956;9.222;2022-09-03T05:59:04;12.10;;;7.97;;
4053;SDS011;2042;47.956;9.222;2022-09-03T06:01:32;8.77;;;7.57;;
4053;SDS011;2042;47.956;9.222;2022-09-03T06:04:00;10.10;;;8.57;;
4053;SDS011;2042;47.956;9.222;2022-09-03T06:06:26;9.70;;;7.87;;
4053;SDS011;2042;47.956;9.222;2022-09-03T06:08:53;10.00;;;7.73;;
4053;SDS011;2042;47.956;9.222;2022-09-03T06:11:20;10.23;;;7.70;;
4053;SDS011;2042;47.956;9.222;2022-09-03T06:13:52;10.27;;;7.73;;
4053;SDS011;2042;47.956;9.222;2022-09-03T06:16:18;7.67;;;6.87;;
4053;SDS011;2042;47.956;9.222;2022-09-03T06:18:46;8.87;;;7.90;;
4053;SDS011;2042;47.956;9.222;2022-09-03T06:21:13;8.87;;;8.07;;
4053;SDS011;2042;47.956;9.222;2022-09-03T06:23:39;12.13;;;8.47;;
4053;SDS011;2042;47.956;9.222;2022-09-03T06:26:09;11.33;;;7.60;;
4053;SDS011;2042;47.956;9.222;2022-09-03T06:28:36;7.83;;;6.90;;
4053;SDS011;2042;47.956;9.222;2022-09-03T06:31:03;8.40;;;7.60;;
4053;SDS011;2042;47.956;9.222;2022-09-03T06:33:30;8.10;;;6.93;;
4053;SDS011;2042;47.956;9.222;2022-09-03T06:35:57;7.40;;;6.70;;
4053;SDS011;2042;47.956;9.222;2022-09-03T06:38:24;7.80;;;7.00;;
4053;SDS011;2042;47.956;9.222;2022-09-03T06:40:53;9.53;;;7.17;;
4053;SDS011;2042;47.956;9.222;2022-09-03T06:43:20;6.23;;;5.63;;
4053;SDS011;2042;47.956;9.222;2022-09-03T06:46:20;7.47;;;6.77;;
4053;SDS011;2042;47.956;9.222;2022-09-03T06:48:39;7.07;;;6.37;;
4053;SDS011;2042;47.956;9.222;2022-09-03T06:51:09;7.37;;;6.40;;
4053;SDS011;2042;47.956;9.222;2022-09-03T06:53:37;8.30;;;6.53;;
4053;SDS011;2042;47.956;9.222;2022-09-03T06:56:04;6.50;;;6.00;;
4053;SDS011;2042;47.956;9.222;2022-09-03T06:58:31;7.00;;;5.47;;
4053;SDS011;2042;47.956;9.222;2022-09-03T07:01:21;6.70;;;6.20;;
4053;SDS011;2042;47.956;9.222;2022-09-03T07:03:46;6.77;;;6.17;;
4053;SDS011;2042;47.956;9.222;2022-09-03T07:06:16;7.60;;;5.40;;
4053;SDS011;2042;47.956;9.222;2022-09-03T07:08:43;6.10;;;5.53;;
4053;SDS011;2042;47.956;9.222;2022-09-03T07:11:14;6.00;;;5.50;;
4053;SDS011;2042;47.956;9.222;2022-09-03T07:13:42;5.77;;;4.70;;
4053;SDS011;2042;47.956;9.222;2022-09-03T07:16:19;5.47;;;4.97;;
4053;SDS011;2042;47.956;9.222;2022-09-03T07:18:46;5.97;;;5.40;;
4053;SDS011;2042;47.956;9.222;2022-09-03T07:21:13;4.40;;;4.10;;
4053;SDS011;2042;47.956;9.222;2022-09-03T07:23:39;5.30;;;4.60;;
4053;SDS011;2042;47.956;9.222;2022-09-03T07:26:07;5.37;;;4.87;;
4053;SDS011;2042;47.956;9.222;2022-09-03T07:28:34;5.50;;;4.10;;
4053;SDS011;2042;47.956;9.222;2022-09-03T07:31:09;4.70;;;4.30;;
4053;SDS011;2042;47.956;9.222;2022-09-03T07:33:39;3.87;;;3.57;;
4053;SDS011;2042;47.956;9.222;2022-09-03T07:36:09;3.73;;;3.37;;
4053;SDS011;2042;47.956;9.222;2022-09-03T07:38:36;3.60;;;3.30;;
4053;SDS011;2042;47.956;9.222;2022-09-03T07:41:05;3.90;;;3.60;;
4053;SDS011;2042;47.956;9.222;2022-09-03T07:43:38;3.20;;;2.90;;
4053;SDS011;2042;47.956;9.222;2022-09-03T07:46:08;3.50;;;3.20;;
4053;SDS011;2042;47.956;9.222;2022-09-03T07:48:40;3.57;;;3.27;;
4053;SDS011;2042;47.956;9.222;2022-09-03T07:51:07;3.10;;;2.80;;
4053;SDS011;2042;47.956;9.222;2022-09-03T07:53:33;2.97;;;2.77;;
4053;SDS011;2042;47.956;9.222;2022-09-03T07:56:01;2.57;;;2.27;;
4053;SDS011;2042;47.956;9.222;2022-09-03T07:58:28;3.87;;;2.90;;
4053;SDS011;2042;47.956;9.222;2022-09-03T08:00:54;3.13;;;2.60;;
4053;SDS011;2042;47.956;9.222;2022-09-03T08:03:21;3.00;;;2.70;;
4053;SDS011;2042;47.956;9.222;2022-09-03T08:05:47;3.33;;;2.83;;
4053;SDS011;2042;47.956;9.222;2022-09-03T08:08:14;2.97;;;2.50;;
4053;SDS011;2042;47.956;9.222;2022-09-03T08:10:42;3.27;;;3.00;;
4053;SDS011;2042;47.956;9.222;2022-09-03T08:13:08;3.10;;;2.90;;
4053;SDS011;2042;47.956;9.222;2022-09-03T08:15:35;3.47;;;3.17;;
4053;SDS011;2042;47.956;9.222;2022-09-03T08:18:02;2.90;;;2.70;;
4053;SDS011;2042;47.956;9.222;2022-09-03T08:20:28;3.00;;;2.77;;
4053;SDS011;2042;47.956;9.222;2022-09-03T08:23:00;3.27;;;2.23;;
4053;SDS011;2042;47.956;9.222;2022-09-03T08:25:27;2.90;;;2.70;;
4053;SDS011;2042;47.956;9.222;2022-09-03T08:27:53;2.70;;;2.50;;
4053;SDS011;2042;47.956;9.222;2022-09-03T08:30:24;2.80;;;2.60;;
4053;SDS011;2042;47.956;9.222;2022-09-03T08:32:51;3.00;;;2.80;;
4053;SDS011;2042;47.956;9.222;2022-09-03T08:35:17;2.30;;;2.10;;
4053;SDS011;2042;47.956;9.222;2022-09-03T08:37:45;2.10;;;2.00;;
4053;SDS011;2042;47.956;9.222;2022-09-03T08:40:13;4.10;;;2.17;;
4053;SDS011;2042;47.956;9.222;2022-09-03T08:42:46;5.07;;;2.23;;
4053;SDS011;2042;47.956;9.222;2022-09-03T08:45:15;2.20;;;2.10;;
4053;SDS011;2042;47.956;9.222;2022-09-03T08:47:43;2.47;;;2.27;;
4053;SDS011;2042;47.956;9.222;2022-09-03T08:52:46;1.73;;;1.63;;
4053;SDS011;2042;47.956;9.222;2022-09-03T08:58:01;1.67;;;1.57;;
4053;SDS011;2042;47.956;9.222;2022-09-03T09:00:28;2.07;;;1.60;;
4053;SDS011;2042;47.956;9.222;2022-09-03T09:05:40;1.50;;;1.40;;
4053;SDS011;2042;47.956;9.222;2022-09-03T09:08:23;1.47;;;1.30;;
4053;SDS011;2042;47.956;9.222;2022-09-03T09:10:57;1.40;;;1.30;;
4053;SDS011;2042;47.956;9.222;2022-09-03T09:13:33;3.07;;;1.30;;
4053;SDS011;2042;47.956;9.222;2022-09-03T09:16:14;1.50;;;1.40;;
4053;SDS011;2042;47.956;9.222;2022-09-03T09:21:16;1.83;;;1.30;;
4053;SDS011;2042;47.956;9.222;2022-09-03T09:23:45;1.83;;;1.73;;
4053;SDS011;2042;47.956;9.222;2022-09-03T09:26:12;3.60;;;1.30;;
4053;SDS011;2042;47.956;9.222;2022-09-03T09:28:39;1.20;;;1.10;;
4053;SDS011;2042;47.956;9.222;2022-09-03T09:31:07;1.77;;;1.40;;
4053;SDS011;2042;47.956;9.222;2022-09-03T09:33:36;1.20;;;1.10;;
4053;SDS011;2042;47.956;9.222;2022-09-03T09:36:06;1.27;;;1.17;;
4053;SDS011;2042;47.956;9.222;2022-09-03T09:38:34;1.60;;;1.50;;
4053;SDS011;2042;47.956;9.222;2022-09-03T09:43:39;1.20;;;0.93;;
4053;SDS011;2042;47.956;9.222;2022-09-03T09:46:15;1.40;;;1.30;;
4053;SDS011;2042;47.956;9.222;2022-09-03T09:51:21;1.60;;;1.20;;
4053;SDS011;2042;47.956;9.222;2022-09-03T09:53:47;1.37;;;1.27;;
4053;SDS011;2042;47.956;9.222;2022-09-03T09:56:24;1.30;;;1.20;;
4053;SDS011;2042;47.956;9.222;2022-09-03T09:59:00;1.37;;;1.27;;
4053;SDS011;2042;47.956;9.222;2022-09-03T10:01:30;1.40;;;1.30;;
4053;SDS011;2042;47.956;9.222;2022-09-03T10:04:00;1.63;;;1.20;;
4053;SDS011;2042;47.956;9.222;2022-09-03T10:06:35;1.57;;;1.47;;
4053;SDS011;2042;47.956;9.222;2022-09-03T10:09:28;1.30;;;1.10;;
4053;SDS011;2042;47.956;9.222;2022-09-03T10:14:58;2.23;;;1.20;;
4053;SDS011;2042;47.956;9.222;2022-09-03T10:25:33;1.67;;;1.53;;
4053;SDS011;2042;47.956;9.222;2022-09-03T10:28:05;1.47;;;1.30;;
4053;SDS011;2042;47.956;9.222;2022-09-03T10:30:37;1.47;;;1.37;;
4053;SDS011;2042;47.956;9.222;2022-09-03T10:33:38;1.30;;;1.20;;
4053;SDS011;2042;47.956;9.222;2022-09-03T10:39:00;1.57;;;1.33;;
4053;SDS011;2042;47.956;9.222;2022-09-03T10:41:38;1.73;;;1.63;;
4053;SDS011;2042;47.956;9.222;2022-09-03T10:44:34;2.10;;;2.00;;
4053;SDS011;2042;47.956;9.222;2022-09-03T10:47:13;1.60;;;1.50;;
4053;SDS011;2042;47.956;9.222;2022-09-03T10:55:49;2.53;;;1.37;;
4053;SDS011;2042;47.956;9.222;2022-09-03T11:06:53;2.10;;;1.93;;
4053;SDS011;2042;47.956;9.222;2022-09-03T11:12:30;2.20;;;1.60;;
4053;SDS011;2042;47.956;9.222;2022-09-03T11:15:02;3.17;;;1.57;;
4053;SDS011;2042;47.956;9.222;2022-09-03T11:17:33;1.83;;;1.60;;
4053;SDS011;2042;47.956;9.222;2022-09-03T11:20:10;1.60;;;1.50;;
4053;SDS011;2042;47.956;9.222;2022-09-03T11:22:36;1.27;;;1.17;;
4053;SDS011;2042;47.956;9.222;2022-09-03T11:25:03;3.23;;;1.40;;
4053;SDS011;2042;47.956;9.222;2022-09-03T11:32:46;1.70;;;1.60;;
4053;SDS011;2042;47.956;9.222;2022-09-03T11:40:28;1.60;;;1.10;;
4053;SDS011;2042;47.956;9.222;2022-09-03T11:43:04;3.33;;;1.33;;
4053;SDS011;2042;47.956;9.222;2022-09-03T11:47:57;1.60;;;1.50;;
4053;SDS011;2042;47.956;9.222;2022-09-03T11:50:30;1.40;;;1.30;;
4053;SDS011;2042;47.956;9.222;2022-09-03T11:55:53;1.30;;;1.20;;
4053;SDS011;2042;47.956;9.222;2022-09-03T12:00:51;1.30;;;1.20;;
4053;SDS011;2042;47.956;9.222;2022-09-03T12:03:21;1.10;;;1.00;;
4053;SDS011;2042;47.956;9.222;2022-09-03T12:19:46;1.33;;;1.23;;
4053;SDS011;2042;47.956;9.222;2022-09-03T12:22:22;1.40;;;1.17;;
4053;SDS011;2042;47.956;9.222;2022-09-03T12:24:49;1.40;;;1.00;;
4053;SDS011;2042;47.956;9.222;2022-09-03T12:30:01;1.20;;;1.10;;
4053;SDS011;2042;47.956;9.222;2022-09-03T12:32:30;1.37;;;1.20;;
4053;SDS011;2042;47.956;9.222;2022-09-03T12:37:43;1.30;;;1.20;;
4053;SDS011;2042;47.956;9.222;2022-09-03T12:40:17;2.13;;;1.20;;
4053;SDS011;2042;47.956;9.222;2022-09-03T12:42:45;1.47;;;1.37;;
4053;SDS011;2042;47.956;9.222;2022-09-03T12:45:11;1.20;;;1.10;;
4053;SDS011;2042;47.956;9.222;2022-09-03T12:47:40;1.40;;;1.20;;
4053;SDS011;2042;47.956;9.222;2022-09-03T12:50:08;1.13;;;1.03;;
4053;SDS011;2042;47.956;9.222;2022-09-03T12:52:57;1.90;;;1.20;;
4053;SDS011;2042;47.956;9.222;2022-09-03T12:58:14;1.60;;;1.50;;
4053;SDS011;2042;47.956;9.222;2022-09-03T13:03:53;3.10;;;1.40;;
4053;SDS011;2042;47.956;9.222;2022-09-03T13:06:23;1.60;;;1.50;;
4053;SDS011;2042;47.956;9.222;2022-09-03T13:08:58;1.60;;;1.43;;
4053;SDS011;2042;47.956;9.222;2022-09-03T13:11:27;2.60;;;1.67;;
4053;SDS011;2042;47.956;9.222;2022-09-03T13:16:40;1.57;;;1.47;;
4053;SDS011;2042;47.956;9.222;2022-09-03T13:19:21;1.50;;;1.40;;
4053;SDS011;2042;47.956;9.222;2022-09-03T13:21:54;1.23;;;1.13;;
4053;SDS011;2042;47.956;9.222;2022-09-03T13:27:09;1.60;;;1.50;;
4053;SDS011;2042;47.956;9.222;2022-09-03T13:30:10;1.70;;;1.50;;
4053;SDS011;2042;47.956;9.222;2022-09-03T13:32:43;1.40;;;1.30;;
4053;SDS011;2042;47.956;9.222;2022-09-03T13:41:43;1.40;;;1.30;;
4053;SDS011;2042;47.956;9.222;2022-09-03T13:44:17;1.40;;;1.30;;
4053;SDS011;2042;47.956;9.222;2022-09-03T13:49:35;1.40;;;1.30;;
4053;SDS011;2042;47.956;9.222;2022-09-03T13:52:30;1.13;;;1.03;;
4053;SDS011;2042;47.956;9.222;2022-09-03T13:57:56;1.40;;;1.30;;
4053;SDS011;2042;47.956;9.222;2022-09-03T14:03:45;0.90;;;0.80;;
4053;SDS011;2042;47.956;9.222;2022-09-03T14:09:29;1.23;;;1.07;;
4053;SDS011;2042;47.956;9.222;2022-09-03T14:16:53;0.90;;;0.80;;
4053;SDS011;2042;47.956;9.222;2022-09-03T14:19:41;1.43;;;1.20;;
4053;SDS011;2042;47.956;9.222;2022-09-03T14:24:54;1.33;;;1.20;;
4053;SDS011;2042;47.956;9.222;2022-09-03T14:27:30;1.20;;;1.10;;
4053;SDS011;2042;47.956;9.222;2022-09-03T14:40:44;1.10;;;1.00;;
4053;SDS011;2042;47.956;9.222;2022-09-03T14:43:22;1.17;;;1.03;;
4053;SDS011;2042;47.956;9.222;2022-09-03T14:46:02;1.20;;;1.10;;
4053;SDS011;2042;47.956;9.222;2022-09-03T14:48:56;1.20;;;1.10;;
4053;SDS011;2042;47.956;9.222;2022-09-03T14:54:36;1.10;;;1.00;;
4053;SDS011;2042;47.956;9.222;2022-09-03T15:00:04;0.90;;;0.80;;
4053;SDS011;2042;47.956;9.222;2022-09-03T15:11:09;1.00;;;0.90;;
4053;SDS011;2042;47.956;9.222;2022-09-03T15:25:15;1.43;;;1.17;;
4053;SDS011;2042;47.956;9.222;2022-09-03T15:28:00;1.70;;;1.27;;
4053;SDS011;2042;47.956;9.222;2022-09-03T15:30:59;1.10;;;1.00;;
4053;SDS011;2042;47.956;9.222;2022-09-03T15:33:33;1.40;;;1.23;;
4053;SDS011;2042;47.956;9.222;2022-09-03T15:36:19;1.47;;;1.33;;
4053;SDS011;2042;47.956;9.222;2022-09-03T15:38:58;1.40;;;1.07;;
4053;SDS011;2042;47.956;9.222;2022-09-03T15:41:43;2.13;;;1.20;;
4053;SDS011;2042;47.956;9.222;2022-09-03T15:44:15;1.23;;;1.13;;
4053;SDS011;2042;47.956;9.222;2022-09-03T15:49:17;1.27;;;1.17;;
4053;SDS011;2042;47.956;9.222;2022-09-03T15:55:04;3.13;;;1.17;;
4053;SDS011;2042;47.956;9.222;2022-09-03T15:57:36;1.23;;;1.10;;
4053;SDS011;2042;47.956;9.222;2022-09-03T16:00:18;1.37;;;1.27;;
4053;SDS011;2042;47.956;9.222;2022-09-03T16:02:46;1.77;;;1.20;;
4053;SDS011;2042;47.956;9.222;2022-09-03T16:05:42;1.90;;;1.80;;
4053;SDS011;2042;47.956;9.222;2022-09-03T16:16:45;1.70;;;1.60;;
4053;SDS011;2042;47.956;9.222;2022-09-03T16:22:13;1.20;;;1.10;;
4053;SDS011;2042;47.956;9.222;2022-09-03T16:25:08;1.97;;;1.87;;
4053;SDS011;2042;47.956;9.222;2022-09-03T16:28:04;1.80;;;1.60;;
4053;SDS011;2042;47.956;9.222;2022-09-03T16:41:59;1.47;;;1.30;;
4053;SDS011;2042;47.956;9.222;2022-09-03T16:52:40;1.90;;;1.70;;
4053;SDS011;2042;47.956;9.222;2022-09-03T17:20:50;1.80;;;1.67;;
4053;SDS011;2042;47.956;9.222;2022-09-03T17:23:25;2.10;;;1.90;;
4053;SDS011;2042;47.956;9.222;2022-09-03T17:31:56;3.10;;;2.80;;
4053;SDS011;2042;47.956;9.222;2022-09-03T17:34:47;2.00;;;1.77;;
4053;SDS011;2042;47.956;9.222;2022-09-03T17:46:32;1.80;;;1.70;;
4053;SDS011;2042;47.956;9.222;2022-09-03T17:49:20;2.27;;;2.00;;
4053;SDS011;2042;47.956;9.222;2022-09-03T17:51:57;2.13;;;1.83;;
4053;SDS011;2042;47.956;9.222;2022-09-03T17:54:44;1.70;;;1.60;;
4053;SDS011;2042;47.956;9.222;2022-09-03T18:05:00;1.60;;;1.50;;
4053;SDS011;2042;47.956;9.222;2022-09-03T18:07:43;1.80;;;1.70;;
4053;SDS011;2042;47.956;9.222;2022-09-03T18:13:23;2.17;;;2.07;;
4053;SDS011;2042;47.956;9.222;2022-09-03T18:19:00;1.90;;;1.80;;
4053;SDS011;2042;47.956;9.222;2022-09-03T18:21:32;2.53;;;2.33;;
4053;SDS011;2042;47.956;9.222;2022-09-03T18:24:22;2.20;;;2.00;;
4053;SDS011;2042;47.956;9.222;2022-09-03T18:27:17;2.17;;;2.00;;
4053;SDS011;2042;47.956;9.222;2022-09-03T18:30:16;2.10;;;2.00;;
4053;SDS011;2042;47.956;9.222;2022-09-03T18:33:01;2.17;;;1.97;;
4053;SDS011;2042;47.956;9.222;2022-09-03T18:35:45;2.80;;;2.60;;
4053;SDS011;2042;47.956;9.222;2022-09-03T18:38:31;2.40;;;2.20;;
4053;SDS011;2042;47.956;9.222;2022-09-03T19:02:18;2.43;;;2.23;;
4053;SDS011;2042;47.956;9.222;2022-09-03T19:05:17;3.43;;;2.43;;
4053;SDS011;2042;47.956;9.222;2022-09-03T19:08:14;2.77;;;2.57;;
4053;SDS011;2042;47.956;9.222;2022-09-03T19:13:58;2.70;;;2.20;;
4053;SDS011;2042;47.956;9.222;2022-09-03T19:16:52;2.40;;;2.30;;
4053;SDS011;2042;47.956;9.222;2022-09-03T19:22:47;2.90;;;2.70;;
4053;SDS011;2042;47.956;9.222;2022-09-03T19:25:31;2.80;;;2.50;;
4053;SDS011;2042;47.956;9.222;2022-09-03T19:31:18;2.70;;;2.20;;
4053;SDS011;2042;47.956;9.222;2022-09-03T19:37:14;5.20;;;2.80;;
4053;SDS011;2042;47.956;9.222;2022-09-03T19:52:08;5.43;;;3.50;;
4053;SDS011;2042;47.956;9.222;2022-09-03T19:55:03;3.20;;;2.80;;
4053;SDS011;2042;47.956;9.222;2022-09-03T19:57:49;2.80;;;2.50;;
4053;SDS011;2042;47.956;9.222;2022-09-03T20:00:38;3.70;;;3.00;;
4053;SDS011;2042;47.956;9.222;2022-09-03T20:03:23;3.00;;;2.63;;
4053;SDS011;2042;47.956;9.222;2022-09-03T20:06:08;3.50;;;3.20;;
4053;SDS011;2042;47.956;9.222;2022-09-03T20:08:53;14.33;;;3.50;;
4053;SDS011;2042;47.956;9.222;2022-09-03T20:11:45;3.10;;;2.80;;
4053;SDS011;2042;47.956;9.222;2022-09-03T20:14:13;3.00;;;2.77;;
4053;SDS011;2042;47.956;9.222;2022-09-03T20:16:46;4.00;;;2.83;;
4053;SDS011;2042;47.956;9.222;2022-09-03T20:22:29;5.17;;;3.23;;
4053;SDS011;2042;47.956;9.222;2022-09-03T20:25:25;3.60;;;3.13;;
4053;SDS011;2042;47.956;9.222;2022-09-03T20:39:14;3.67;;;2.77;;
4053;SDS011;2042;47.956;9.222;2022-09-03T20:41:57;4.13;;;3.73;;
4053;SDS011;2042;47.956;9.222;2022-09-03T20:45:03;3.30;;;3.03;;
4053;SDS011;2042;47.956;9.222;2022-09-03T20:56:02;3.77;;;3.43;;
4053;SDS011;2042;47.956;9.222;2022-09-03T20:58:44;3.83;;;2.73;;
4053;SDS011;2042;47.956;9.222;2022-09-03T21:04:31;5.17;;;3.57;;
4053;SDS011;2042;47.956;9.222;2022-09-03T21:07:10;6.63;;;3.03;;
4053;SDS011;2042;47.956;9.222;2022-09-03T21:10:05;5.10;;;3.30;;
4053;SDS011;2042;47.956;9.222;2022-09-03T21:15:49;3.70;;;3.40;;
4053;SDS011;2042;47.956;9.222;2022-09-03T21:18:32;3.90;;;3.50;;
4053;SDS011;2042;47.956;9.222;2022-09-03T21:21:10;3.50;;;3.20;;
4053;SDS011;2042;47.956;9.222;2022-09-03T21:23:52;5.90;;;3.53;;
4053;SDS011;2042;47.956;9.222;2022-09-03T21:26:29;3.47;;;3.03;;
4053;SDS011;2042;47.956;9.222;2022-09-03T21:31:50;3.93;;;3.53;;
4053;SDS011;2042;47.956;9.222;2022-09-03T21:40:36;6.17;;;2.83;;
4053;SDS011;2042;47.956;9.222;2022-09-03T21:43:15;4.00;;;3.60;;
4053;SDS011;2042;47.956;9.222;2022-09-03T21:45:46;3.80;;;3.17;;
4053;SDS011;2042;47.956;9.222;2022-09-03T21:50:56;3.10;;;2.83;;
4053;SDS011;2042;47.956;9.222;2022-09-03T21:53:29;3.13;;;2.93;;
4053;SDS011;2042;47.956;9.222;2022-09-03T21:56:14;3.40;;;3.10;;
4053;SDS011;2042;47.956;9.222;2022-09-03T21:59:02;5.70;;;3.13;;
4053;SDS011;2042;47.956;9.222;2022-09-03T22:04:15;3.37;;;3.07;;
4053;SDS011;2042;47.956;9.222;2022-09-03T22:06:57;2.80;;;2.53;;
4053;SDS011;2042;47.956;9.222;2022-09-03T22:09:30;8.90;;;3.33;;
4053;SDS011;2042;47.956;9.222;2022-09-03T22:12:06;4.30;;;3.60;;
4053;SDS011;2042;47.956;9.222;2022-09-03T22:14:41;6.57;;;3.60;;